Time;durP1;ratioP1;P1;durP2;ratioP2;P2;SDS_P1;SDS_P2;PMS_P1;PMS_P2;Temp;Humidity;BMP_temperature;BMP_pressure;BME280_temperature;BME280_humidity;BME280_pressure;Samples;Min_cycle;Max_cycle;Signal;HPM_P1;HPM_P2
2021/09/13 00:00:44;;;;;;;19.77;12.87;;;;;;;16.20;100.00;100158.70;1685479;85;21091;-68
2021/09/13 00:03:11;;;;;;;18.13;13.27;;;;;;;16.20;100.00;100163.17;1685020;84;21652;-68
2021/09/13 00:05:39;;;;;;;24.27;14.30;;;;;;;16.18;100.00;100165.23;1648966;86;21593;-70
2021/09/13 00:08:09;;;;;;;22.07;13.87;;;;;;;16.17;100.00;100169.66;1667230;85;21642;-68
2021/09/13 00:10:35;;;;;;;24.37;13.47;;;;;;;16.20;100.00;100169.23;1638208;87;21620;-69
2021/09/13 00:13:04;;;;;;;22.97;14.20;;;;;;;16.29;100.00;100166.59;1637910;87;21064;-70
2021/09/13 00:15:32;;;;;;;20.77;14.17;;;;;;;16.37;100.00;100166.00;1645793;85;21009;-71
2021/09/13 00:17:59;;;;;;;20.33;13.90;;;;;;;16.41;100.00;100170.59;1658367;85;21326;-69
2021/09/13 00:20:28;;;;;;;20.80;13.40;;;;;;;16.41;100.00;100163.20;1639896;85;21326;-69
2021/09/13 00:22:55;;;;;;;23.13;14.40;;;;;;;16.51;100.00;100152.41;1672788;85;21552;-69
2021/09/13 00:25:22;;;;;;;22.50;12.87;;;;;;;16.51;100.00;100152.41;1654000;85;21111;-73
2021/09/13 00:27:52;;;;;;;20.37;13.50;;;;;;;16.51;100.00;100158.19;1641127;85;21066;-72
2021/09/13 00:30:19;;;;;;;21.60;14.17;;;;;;;16.53;100.00;100162.21;1659888;85;21041;-69
2021/09/13 00:32:47;;;;;;;21.53;13.43;;;;;;;16.58;100.00;100156.78;1638977;86;21715;-69
2021/09/13 00:35:14;;;;;;;21.23;13.93;;;;;;;16.58;100.00;100156.78;1638865;85;21034;-69
2021/09/13 00:37:43;;;;;;;23.67;13.93;;;;;;;16.50;100.00;100156.59;1642327;85;21190;-71
2021/09/13 00:40:12;;;;;;;21.80;14.60;;;;;;;16.42;100.00;100157.72;1640755;85;21661;-70
2021/09/13 00:42:38;;;;;;;18.63;12.70;;;;;;;16.39;100.00;100157.36;1638143;87;21057;-69
2021/09/13 00:45:08;;;;;;;21.10;13.43;;;;;;;16.27;100.00;100163.89;1637918;87;21622;-69
2021/09/13 00:47:35;;;;;;;18.67;12.13;;;;;;;16.25;100.00;100161.49;1637960;87;21152;-69
2021/09/13 00:50:01;;;;;;;18.73;13.73;;;;;;;16.24;100.00;100162.50;1637670;87;21144;-68
2021/09/13 00:52:28;;;;;;;20.10;14.23;;;;;;;16.16;100.00;100161.49;1638483;87;21609;-66
2021/09/13 00:54:54;;;;;;;23.57;14.10;;;;;;;16.09;100.00;100157.34;1609461;85;22239;-73
2021/09/13 00:57:21;;;;;;;22.57;14.17;;;;;;;16.14;100.00;100164.88;1612995;87;21661;-69
2021/09/13 00:59:48;;;;;;;18.93;12.67;;;;;;;16.10;100.00;100154.99;1611232;88;21076;-67
2021/09/13 01:02:17;;;;;;;22.77;14.73;;;;;;;16.07;100.00;100154.95;1611645;88;21293;-68
2021/09/13 01:04:44;;;;;;;23.87;15.70;;;;;;;16.06;100.00;100158.58;1624468;86;21521;-67
2021/09/13 01:07:12;;;;;;;19.37;14.23;;;;;;;16.04;100.00;100158.01;1633749;87;21803;-67
2021/09/13 01:09:39;;;;;;;20.73;13.90;;;;;;;15.92;100.00;100162.41;1640883;85;21024;-68
2021/09/13 01:12:09;;;;;;;20.10;14.13;;;;;;;15.95;100.00;100167.23;1660001;85;21750;-68
2021/09/13 01:14:39;;;;;;;19.60;13.77;;;;;;;15.88;100.00;100166.50;1677196;84;21708;-69
2021/09/13 01:17:07;;;;;;;19.50;13.63;;;;;;;15.83;100.00;100168.97;1627243;86;21703;-68
2021/09/13 01:19:35;;;;;;;19.03;13.13;;;;;;;15.54;100.00;100167.33;1643308;85;20989;-68
2021/09/13 01:22:04;;;;;;;20.13;14.30;;;;;;;15.36;100.00;100169.93;1644427;86;22903;-68
2021/09/13 01:24:35;;;;;;;17.80;12.53;;;;;;;15.32;100.00;100166.42;1649833;85;22237;-68
2021/09/13 01:27:05;;;;;;;19.00;12.47;;;;;;;15.45;100.00;100164.68;1646137;85;22052;-69
2021/09/13 01:29:32;;;;;;;21.47;13.67;;;;;;;15.39;100.00;100161.63;1642841;85;21778;-69
2021/09/13 01:32:01;;;;;;;19.53;13.57;;;;;;;15.46;100.00;100163.17;1643792;87;21794;-69
2021/09/13 01:34:30;;;;;;;20.10;13.93;;;;;;;15.30;100.00;100167.16;1644483;85;22077;-67
2021/09/13 01:36:57;;;;;;;17.90;12.00;;;;;;;15.17;100.00;100171.20;1644063;87;21682;-74
2021/09/13 01:39:24;;;;;;;19.23;12.77;;;;;;;15.15;100.00;100171.91;1657485;84;21912;-68
2021/09/13 01:41:51;;;;;;;22.23;12.70;;;;;;;15.09;100.00;100171.47;1644521;86;22265;-68
2021/09/13 01:44:19;;;;;;;17.43;12.13;;;;;;;15.06;100.00;100170.07;1644937;85;21707;-69
2021/09/13 01:46:47;;;;;;;24.07;11.93;;;;;;;14.98;100.00;100173.48;1644075;86;21647;-73
2021/09/13 01:49:14;;;;;;;17.60;13.13;;;;;;;15.04;100.00;100166.07;1643769;86;22261;-68
2021/09/13 01:51:43;;;;;;;20.10;11.77;;;;;;;15.13;100.00;100171.84;1644623;86;21842;-68
2021/09/13 01:54:09;;;;;;;19.33;11.83;;;;;;;15.32;100.00;100168.24;1644378;86;21757;-68
2021/09/13 01:56:38;;;;;;;22.90;13.47;;;;;;;15.13;100.00;100167.40;1644312;85;22328;-68
2021/09/13 01:59:05;;;;;;;19.30;12.80;;;;;;;15.07;100.00;100170.87;1644016;86;22198;-72
2021/09/13 02:01:32;;;;;;;20.80;12.90;;;;;;;14.90;100.00;100171.12;1643225;86;21850;-68
2021/09/13 02:04:03;;;;;;;18.10;11.73;;;;;;;14.90;100.00;100171.12;1642768;86;21762;-69
2021/09/13 02:06:28;;;;;;;23.67;12.60;;;;;;;14.86;100.00;100163.38;1632790;86;21683;-68
2021/09/13 02:08:57;;;;;;;24.37;12.97;;;;;;;14.86;100.00;100163.38;1630693;86;22278;-72
2021/09/13 02:11:25;;;;;;;16.90;11.53;;;;;;;14.74;100.00;100162.75;1627186;86;21776;-69
2021/09/13 02:13:53;;;;;;;18.13;12.67;;;;;;;14.62;100.00;100165.73;1627348;86;22337;-68
2021/09/13 02:16:20;;;;;;;22.70;12.53;;;;;;;14.50;100.00;100165.61;1627942;86;21468;-70
2021/09/13 02:18:49;;;;;;;17.57;12.10;;;;;;;14.47;100.00;100170.44;1627921;86;21746;-70
2021/09/13 02:21:17;;;;;;;16.67;12.10;;;;;;;14.47;100.00;100170.44;1627702;86;21515;-72
2021/09/13 02:23:44;;;;;;;18.23;12.93;;;;;;;14.56;100.00;100166.59;1627567;86;21524;-68
2021/09/13 02:26:14;;;;;;;19.53;12.57;;;;;;;14.42;100.00;100168.45;1635932;86;21805;-69
2021/09/13 02:28:41;;;;;;;19.63;12.60;;;;;;;14.42;100.00;100168.45;1655474;86;22296;-69
2021/09/13 02:31:08;;;;;;;23.20;13.70;;;;;;;14.33;100.00;100169.21;1630995;86;21742;-70
2021/09/13 02:33:34;;;;;;;25.77;15.80;;;;;;;14.35;100.00;100164.55;1632904;86;21736;-71
2021/09/13 02:36:02;;;;;;;23.03;15.03;;;;;;;14.50;100.00;100161.67;1632609;86;21613;-69
2021/09/13 02:38:30;;;;;;;19.57;12.40;;;;;;;14.50;100.00;100161.67;1644914;86;21438;-69
2021/09/13 02:40:59;;;;;;;22.30;11.83;;;;;;;14.54;100.00;100158.13;1654512;84;22394;-69
2021/09/13 02:43:27;;;;;;;16.73;11.03;;;;;;;14.31;100.00;100145.00;1640775;86;21903;-73
2021/09/13 02:45:54;;;;;;;15.23;9.97;;;;;;;14.38;100.00;100154.66;1658193;86;21740;-69
2021/09/13 02:48:20;;;;;;;18.43;11.07;;;;;;;14.42;100.00;100165.03;1664642;86;22230;-69
2021/09/13 02:50:47;;;;;;;14.20;9.93;;;;;;;14.43;100.00;100166.63;1653201;86;21720;-70
2021/09/13 02:53:13;;;;;;;16.77;9.17;;;;;;;14.47;100.00;100162.09;1628908;86;21463;-69
2021/09/13 02:55:41;;;;;;;15.20;9.53;;;;;;;14.50;100.00;100164.80;1629766;86;21771;-71
2021/09/13 02:58:07;;;;;;;15.63;9.37;;;;;;;14.66;100.00;100169.57;1629720;86;22189;-70
2021/09/13 03:00:35;;;;;;;16.17;9.93;;;;;;;14.66;100.00;100169.57;1640859;81;22248;-70
2021/09/13 03:03:04;;;;;;;14.17;9.60;;;;;;;14.76;100.00;100181.69;1664809;85;21719;-69
2021/09/13 03:05:30;;;;;;;17.07;10.37;;;;;;;14.68;100.00;100180.64;1739202;82;21774;-70
2021/09/13 03:07:58;;;;;;;16.20;10.77;;;;;;;14.68;100.00;100180.64;1736487;82;21480;-71
2021/09/13 03:10:25;;;;;;;15.07;10.07;;;;;;;14.66;100.00;100178.75;1682530;83;21835;-74
2021/09/13 03:12:53;;;;;;;17.63;11.63;;;;;;;14.67;100.00;100179.55;1674720;85;21770;-72
2021/09/13 03:15:21;;;;;;;19.43;11.60;;;;;;;14.53;100.00;100180.13;1658009;84;21659;-71
2021/09/13 03:17:50;;;;;;;20.93;11.90;;;;;;;14.58;100.00;100179.81;1740351;81;21641;-73
2021/09/13 03:20:17;;;;;;;15.57;10.10;;;;;;;14.22;100.00;100186.11;1703967;84;21685;-69
2021/09/13 03:22:43;;;;;;;15.73;10.53;;;;;;;14.33;100.00;100193.32;1703718;84;21716;-72
2021/09/13 03:25:11;;;;;;;18.73;11.70;;;;;;;14.20;100.00;100192.85;1704614;83;22033;-73
2021/09/13 03:27:39;;;;;;;18.80;11.93;;;;;;;14.27;100.00;100183.66;1675489;82;22284;-70
2021/09/13 03:30:07;;;;;;;15.13;10.93;;;;;;;14.23;100.00;100191.13;1682779;83;22310;-70
2021/09/13 03:32:33;;;;;;;19.93;11.80;;;;;;;14.10;100.00;100193.31;1683575;84;21708;-73
2021/09/13 03:35:01;;;;;;;20.97;12.47;;;;;;;14.22;100.00;100186.91;1679208;83;21904;-69
2021/09/13 03:37:28;;;;;;;16.07;11.10;;;;;;;14.27;100.00;100187.08;1672830;84;22280;-69
2021/09/13 03:39:55;;;;;;;20.23;11.90;;;;;;;14.38;100.00;100188.24;1672605;85;21708;-73
2021/09/13 03:42:22;;;;;;;15.60;11.13;;;;;;;14.59;100.00;100176.67;1735048;80;21479;-65
2021/09/13 03:44:49;;;;;;;14.43;8.63;;;;;;;14.26;100.00;100185.48;1738111;81;21728;-66
2021/09/13 03:47:27;;;;;;;20.97;10.93;;;;;;;14.47;100.00;100188.80;1742718;80;21687;-65
2021/09/13 03:49:54;;;;;;;14.63;10.80;;;;;;;14.86;100.00;100189.63;1732336;81;22220;-76
2021/09/13 03:52:20;;;;;;;17.30;10.43;;;;;;;15.24;100.00;100189.53;1748623;81;21788;-76
2021/09/13 03:54:47;;;;;;;23.47;11.00;;;;;;;15.14;100.00;100195.77;1750769;81;21775;-65
2021/09/13 03:57:14;;;;;;;19.33;11.97;;;;;;;15.48;100.00;100195.26;1743267;81;21702;-65
2021/09/13 03:59:41;;;;;;;20.20;13.07;;;;;;;15.48;100.00;100195.26;1768596;80;21020;-66
2021/09/13 04:02:08;;;;;;;19.17;10.53;;;;;;;15.27;100.00;100195.67;1734476;81;21590;-65
2021/09/13 04:04:35;;;;;;;16.17;11.73;;;;;;;15.21;100.00;100201.26;1730072;81;21709;-73
2021/09/13 04:09:50;;;;;;;;;;;;;;;15.51;100.00;100207.97;1710121;82;21042;-64
2021/09/13 04:12:27;;;;;;;24.43;12.10;;;;;;;15.62;100.00;100201.20;1660793;82;20154;-64
2021/09/13 04:15:06;;;;;;;24.37;13.53;;;;;;;16.08;100.00;100200.45;1636536;84;21575;-66
2021/09/13 04:17:36;;;;;;;19.07;12.90;;;;;;;17.10;100.00;100196.02;1665096;85;20943;-73
2021/09/13 04:20:24;;;;;;;17.83;11.37;;;;;;;18.34;100.00;100184.44;1602360;88;21113;-64
2021/09/13 04:23:08;;;;;;;16.53;11.83;;;;;;;19.53;100.00;100189.55;1599718;88;21015;-65
2021/09/13 04:25:40;;;;;;;;;;;;;;;20.23;100.00;100181.45;1672133;83;21018;-65
2021/09/13 04:28:11;;;;;;;14.47;9.48;;;;;;;20.37;100.00;100167.28;1647936;84;20096;-66
2021/09/13 04:30:43;;;;;;;13.63;8.77;;;;;;;19.83;100.00;100168.55;1666131;84;21471;-66
2021/09/13 04:33:29;;;;;;;15.43;9.37;;;;;;;19.55;100.00;100178.22;1668830;84;21118;-66
2021/09/13 04:35:57;;;;;;;17.20;9.90;;;;;;;19.26;100.00;100183.34;1664949;85;21022;-68
2021/09/13 04:38:38;;;;;;;17.30;12.28;;;;;;;19.01;100.00;100192.47;1598641;86;21568;-65
2021/09/13 04:41:15;;;;;;;14.27;9.80;;;;;;;18.87;100.00;100193.84;1667667;84;21390;-65
2021/09/13 04:43:48;;;;;;;14.17;9.60;;;;;;;18.89;100.00;100191.75;1684008;84;20991;-67
2021/09/13 04:46:29;;;;;;;16.27;10.37;;;;;;;18.39;100.00;100193.23;1685494;84;21146;-65
2021/09/13 04:49:10;;;;;;;;;;;;;;;18.36;100.00;100196.34;1688412;82;21828;-63
2021/09/13 04:51:45;;;;;;;14.10;10.83;;;;;;;18.28;100.00;100197.23;1684528;83;20100;-63
2021/09/13 04:54:19;;;;;;;13.33;10.40;;;;;;;18.18;100.00;100203.94;1683447;84;21009;-65
2021/09/13 04:56:47;;;;;;;15.23;10.57;;;;;;;18.10;100.00;100199.52;1685027;84;21581;-67
2021/09/13 04:59:14;;;;;;;16.80;11.13;;;;;;;18.10;100.00;100197.69;1687436;84;21092;-71
2021/09/13 05:01:41;;;;;;;15.60;10.00;;;;;;;18.19;100.00;100194.18;1693046;83;21543;-63
2021/09/13 05:04:09;;;;;;;15.70;9.90;;;;;;;18.24;100.00;100202.98;1746535;80;21051;-67
2021/09/13 05:06:38;;;;;;;21.77;11.60;;;;;;;18.39;100.00;100206.95;1675456;83;20968;-64
2021/09/13 05:09:05;;;;;;;18.27;10.90;;;;;;;18.75;100.00;100207.61;1732820;81;21092;-64
2021/09/13 05:11:34;;;;;;;18.83;11.10;;;;;;;19.01;100.00;100207.00;1700309;82;20916;-64
2021/09/13 05:14:01;;;;;;;20.23;12.37;;;;;;;19.03;100.00;100208.89;1735645;81;21050;-66
2021/09/13 05:16:32;;;;;;;17.83;11.33;;;;;;;19.13;100.00;100211.70;1744652;81;21007;-65
2021/09/13 05:19:00;;;;;;;16.57;12.77;;;;;;;19.06;100.00;100207.09;1758285;81;20986;-66
2021/09/13 05:21:26;;;;;;;21.17;13.67;;;;;;;19.20;100.00;100207.03;1737030;81;20911;-65
2021/09/13 05:23:58;;;;;;;28.40;17.23;;;;;;;19.30;100.00;100204.28;1710974;83;21585;-64
2021/09/13 05:26:24;;;;;;;23.93;14.77;;;;;;;19.46;100.00;100195.52;1722144;81;21502;-70
2021/09/13 05:28:52;;;;;;;19.40;13.77;;;;;;;19.63;100.00;100198.19;1724082;82;22123;-68
2021/09/13 05:31:19;;;;;;;22.67;13.30;;;;;;;19.76;100.00;100191.73;1722827;83;21467;-67
2021/09/13 05:33:46;;;;;;;19.83;13.73;;;;;;;20.26;100.00;100193.37;1723101;82;21227;-71
2021/09/13 05:36:13;;;;;;;22.23;16.03;;;;;;;20.58;100.00;100187.66;1711339;83;22125;-69
2021/09/13 05:38:40;;;;;;;26.93;19.10;;;;;;;20.66;100.00;100190.37;1709425;83;21043;-68
2021/09/13 05:41:14;;;;;;;23.27;17.13;;;;;;;21.03;100.00;100190.42;1714625;82;21072;-67
2021/09/13 05:43:42;;;;;;;21.50;15.77;;;;;;;21.35;100.00;100192.25;1726889;82;21516;-69
2021/09/13 05:46:08;;;;;;;22.63;14.07;;;;;;;21.83;100.00;100187.74;1726489;82;21016;-70
2021/09/13 05:48:35;;;;;;;16.83;12.00;;;;;;;22.16;100.00;100184.41;1727427;82;21110;-68
2021/09/13 05:51:02;;;;;;;18.17;10.80;;;;;;;22.50;100.00;100185.58;1725694;82;21138;-69
2021/09/13 05:53:28;;;;;;;16.60;8.27;;;;;;;22.78;100.00;100183.47;1732131;80;21102;-67
2021/09/13 05:55:55;;;;;;;10.13;5.93;;;;;;;22.97;100.00;100183.77;1740733;81;21039;-66
2021/09/13 05:58:22;;;;;;;9.17;5.33;;;;;;;23.18;100.00;100181.86;1723124;81;20995;-79
2021/09/13 06:00:50;;;;;;;9.10;5.53;;;;;;;23.35;94.44;100181.05;1730031;82;21273;-69
2021/09/13 06:03:16;;;;;;;8.57;5.13;;;;;;;23.49;89.39;100178.09;1712141;83;21034;-73
2021/09/13 06:05:51;;;;;;;12.63;7.33;;;;;;;23.55;82.80;100176.99;1727607;81;21071;-66
2021/09/13 06:08:20;;;;;;;13.83;7.37;;;;;;;23.53;85.63;100176.48;1712003;82;21104;-70
2021/09/13 06:10:46;;;;;;;13.73;9.73;;;;;;;23.73;84.13;100176.18;1736014;80;21054;-67
2021/09/13 06:13:15;;;;;;;13.70;9.57;;;;;;;23.86;78.64;100174.25;1727890;82;21186;-72
2021/09/13 06:15:42;;;;;;;10.80;8.30;;;;;;;24.00;78.41;100171.25;1713475;80;21054;-68
2021/09/13 06:18:11;;;;;;;14.87;9.80;;;;;;;24.27;77.12;100172.70;1750621;80;21009;-67
2021/09/13 06:20:37;;;;;;;13.17;9.27;;;;;;;24.40;72.61;100168.68;1729812;81;21482;-69
2021/09/13 06:23:04;;;;;;;19.10;7.83;;;;;;;24.39;68.46;100170.52;1737410;82;21083;-67
2021/09/13 06:25:33;;;;;;;13.57;8.50;;;;;;;24.19;69.93;100174.09;1711070;83;21173;-69
2021/09/13 06:27:59;;;;;;;13.37;8.77;;;;;;;24.77;67.01;100165.44;1737736;82;21122;-67
2021/09/13 06:30:28;;;;;;;14.63;9.33;;;;;;;24.35;69.59;100176.11;1701047;82;21011;-71
2021/09/13 06:32:57;;;;;;;11.87;8.67;;;;;;;24.55;66.39;100174.41;1702442;82;20997;-70
2021/09/13 06:35:23;;;;;;;15.27;8.80;;;;;;;24.53;66.87;100173.37;1701296;81;21566;-68
2021/09/13 06:37:54;;;;;;;20.95;14.47;;;;;;;24.62;65.13;100173.02;1712928;81;21554;-68
2021/09/13 06:40:21;;;;;;;15.17;10.90;;;;;;;24.79;66.02;100172.64;1736823;80;20995;-70
2021/09/13 06:42:48;;;;;;;12.57;8.83;;;;;;;25.05;65.11;100169.75;1750655;80;21107;-67
2021/09/13 06:45:20;;;;;;;12.67;8.20;;;;;;;25.51;62.94;100167.97;1744582;80;21082;-71
2021/09/13 06:47:47;;;;;;;15.17;7.17;;;;;;;26.25;57.04;100161.69;1739399;80;22438;-68
2021/09/13 06:50:26;;;;;;;11.07;6.27;;;;;;;26.39;55.09;100162.01;1713631;82;21208;-68
2021/09/13 06:52:54;;;;;;;7.57;5.53;;;;;;;26.69;52.79;100167.45;1727810;80;21452;-66
2021/09/13 06:55:23;;;;;;;9.25;5.60;;;;;;;27.33;51.92;100162.89;1712289;81;20989;-67
2021/09/13 06:57:51;;;;;;;7.95;4.72;;;;;;;28.06;50.67;100157.12;1733809;81;21066;-67
2021/09/13 07:00:19;;;;;;;11.15;5.65;;;;;;;29.04;46.15;100151.05;1708051;82;21026;-71
2021/09/13 07:02:46;;;;;;;7.62;5.22;;;;;;;29.70;43.55;100156.50;1732743;80;21735;-68
2021/09/13 07:05:13;;;;;;;8.68;5.70;;;;;;;30.43;41.52;100152.14;1716197;81;21471;-68
2021/09/13 07:07:40;;;;;;;9.95;5.37;;;;;;;30.98;39.44;100149.25;1736565;80;20956;-67
2021/09/13 07:10:09;;;;;;;7.60;5.55;;;;;;;30.89;39.20;100145.25;1719428;81;20953;-70
2021/09/13 07:12:36;;;;;;;9.35;5.83;;;;;;;31.13;38.08;100141.20;1738223;80;21525;-69
2021/09/13 07:15:05;;;;;;;11.75;5.47;;;;;;;31.47;37.31;100144.30;1718920;81;21775;-70
2021/09/13 07:17:32;;;;;;;8.28;5.20;;;;;;;31.55;35.89;100135.37;1735087;80;21470;-74
2021/09/13 07:19:59;;;;;;;8.93;4.65;;;;;;;31.76;35.52;100134.63;1718134;81;22337;-69
2021/09/13 07:22:26;;;;;;;7.30;4.55;;;;;;;31.77;35.17;100132.15;1736999;81;20949;-67
2021/09/13 07:24:53;;;;;;;8.20;4.78;;;;;;;32.08;34.90;100135.81;1740179;80;20955;-69
2021/09/13 07:27:19;;;;;;;7.08;4.80;;;;;;;32.06;34.10;100135.37;1739108;81;21096;-69
2021/09/13 07:29:46;;;;;;;7.20;4.20;;;;;;;32.08;33.19;100137.16;1738934;80;21580;-68
2021/09/13 07:32:12;;;;;;;8.53;4.25;;;;;;;32.14;33.16;100134.50;1732776;81;21063;-69
2021/09/13 07:34:39;;;;;;;8.03;3.80;;;;;;;32.32;32.17;100131.09;1750780;80;21045;-65
2021/09/13 07:37:06;;;;;;;6.37;3.83;;;;;;;32.72;32.00;100129.98;1717565;81;21144;-66
2021/09/13 07:39:34;;;;;;;6.45;3.65;;;;;;;32.74;31.24;100131.80;1735717;82;22092;-66
2021/09/13 07:42:00;;;;;;;6.37;4.17;;;;;;;32.84;31.69;100130.55;1717627;81;21472;-64
2021/09/13 07:44:27;;;;;;;6.67;3.87;;;;;;;33.06;30.97;100132.07;1716461;81;21040;-68
2021/09/13 07:46:54;;;;;;;5.58;3.77;;;;;;;33.05;29.78;100126.45;1716065;82;21159;-66
2021/09/13 07:49:21;;;;;;;6.03;3.75;;;;;;;32.79;29.23;100118.63;1711353;81;21028;-66
2021/09/13 07:51:48;;;;;;;5.47;3.20;;;;;;;32.70;29.46;100121.44;1732885;80;21315;-73
2021/09/13 07:54:16;;;;;;;5.58;3.35;;;;;;;32.94;29.68;100118.00;1726338;80;21041;-73
2021/09/13 07:56:42;;;;;;;7.83;3.12;;;;;;;33.08;28.71;100123.86;1747719;81;21058;-67
2021/09/13 07:59:09;;;;;;;4.90;3.20;;;;;;;32.80;28.18;100114.80;1718488;81;20994;-66
2021/09/13 08:01:36;;;;;;;5.50;3.22;;;;;;;32.18;28.73;100120.02;1735405;80;21312;-68
2021/09/13 08:04:04;;;;;;;5.90;3.25;;;;;;;31.79;29.00;100113.76;1728225;81;22416;-68
2021/09/13 08:06:30;;;;;;;7.15;4.17;;;;;;;31.62;29.68;100111.40;1696283;82;21025;-66
2021/09/13 08:08:57;;;;;;;4.40;3.22;;;;;;;31.49;30.04;100103.02;1724623;80;21113;-66
2021/09/13 08:11:24;;;;;;;6.15;3.70;;;;;;;31.72;29.45;100098.89;1727668;80;21016;-66
2021/09/13 08:13:52;;;;;;;4.70;3.50;;;;;;;31.63;29.93;100098.17;1726871;80;20991;-66
2021/09/13 08:16:23;;;;;;;6.55;3.58;;;;;;;31.76;30.21;100098.23;1729504;81;20989;-72
2021/09/13 08:18:53;;;;;;;5.80;3.50;;;;;;;31.90;29.32;100106.88;1732163;80;21019;-66
2021/09/13 08:21:22;;;;;;;5.17;3.15;;;;;;;31.83;29.10;100092.55;1730777;80;20945;-65
2021/09/13 08:23:50;;;;;;;5.92;3.20;;;;;;;31.81;29.68;100096.12;1732051;81;21046;-65
2021/09/13 08:26:18;;;;;;;5.15;3.20;;;;;;;31.95;29.58;100094.54;1732513;80;21099;-68
2021/09/13 08:28:44;;;;;;;4.78;3.08;;;;;;;31.83;29.03;100097.94;1695158;83;21232;-67
2021/09/13 08:31:12;;;;;;;7.78;3.80;;;;;;;31.73;29.89;100094.28;1694383;82;20978;-66
2021/09/13 08:33:39;;;;;;;5.90;3.17;;;;;;;31.79;29.87;100087.59;1681519;83;21107;-66
2021/09/13 08:36:05;;;;;;;6.30;3.00;;;;;;;31.86;29.37;100093.27;1726808;81;21130;-72
2021/09/13 08:38:33;;;;;;;3.90;3.00;;;;;;;31.97;29.35;100090.94;1697131;82;21155;-67
2021/09/13 08:41:01;;;;;;;4.53;3.42;;;;;;;31.97;29.34;100090.94;1681304;83;22399;-66
2021/09/13 08:43:28;;;;;;;4.60;3.22;;;;;;;32.04;29.45;100087.72;1727359;82;21490;-66
2021/09/13 08:48:44;;;;;;;4.72;3.42;;;;;;;31.49;29.15;100076.87;1700223;82;22423;-67
2021/09/13 08:53:46;;;;;;;6.22;4.15;;;;;;;31.41;30.42;100072.89;1679960;83;21152;-64
2021/09/13 08:56:15;;;;;;;5.20;3.45;;;;;;;31.67;30.05;100074.84;1719634;81;21019;-64
2021/09/13 08:58:45;;;;;;;7.97;4.20;;;;;;;31.90;29.93;100070.49;1699576;83;21468;-65
2021/09/13 09:01:12;;;;;;;5.20;3.42;;;;;;;32.23;29.59;100069.91;1675363;83;21574;-67
2021/09/13 09:03:42;;;;;;;5.55;3.45;;;;;;;32.20;28.96;100062.51;1685197;83;20997;-70
2021/09/13 09:06:41;;;;;;;9.28;4.10;;;;;;;32.11;29.38;100067.18;1736430;80;21563;-67
2021/09/13 09:09:15;;;;;;;6.72;3.12;;;;;;;32.06;29.35;100067.40;1721492;81;21629;-67
2021/09/13 09:12:01;;;;;;;5.17;3.37;;;;;;;32.08;28.98;100063.80;1700936;82;21079;-64
2021/09/13 09:14:45;;;;;;;6.70;2.85;;;;;;;32.24;28.68;100058.59;1731439;80;21485;-64
2021/09/13 09:17:24;;;;;;;6.95;3.50;;;;;;;31.94;29.12;100057.36;1677077;83;21382;-65
2021/09/13 09:20:05;;;;;;;7.40;3.98;;;;;;;31.71;29.49;100055.55;1737676;80;21131;-64
2021/09/13 09:22:36;;;;;;;6.15;3.37;;;;;;;31.52;29.17;100057.11;1730919;80;21110;-65
2021/09/13 09:25:06;;;;;;;5.50;3.17;;;;;;;31.53;29.44;100055.45;1735843;80;29149;-64
2021/09/13 09:27:32;;;;;;;5.10;2.98;;;;;;;31.42;29.79;100052.91;1727789;80;21113;-66
2021/09/13 09:30:12;;;;;;;4.03;3.10;;;;;;;31.65;29.30;100048.77;1662447;81;21510;-69
2021/09/13 09:32:41;;;;;;;4.53;3.02;;;;;;;31.62;29.40;100048.64;1732845;80;21102;-69
2021/09/13 09:35:17;;;;;;;4.65;3.08;;;;;;;31.69;29.11;100052.38;1737085;80;20983;-67
2021/09/13 09:37:43;;;;;;;8.25;3.20;;;;;;;31.81;29.08;100036.04;1729843;80;20983;-68
2021/09/13 09:40:12;;;;;;;5.80;3.62;;;;;;;32.11;29.55;100034.82;1733173;80;21491;-73
2021/09/13 09:42:39;;;;;;;6.62;3.72;;;;;;;32.30;29.58;100038.35;1732587;80;21064;-65
2021/09/13 09:45:23;;;;;;;7.60;3.65;;;;;;;32.88;28.09;100032.91;1733572;80;21125;-66
2021/09/13 09:48:08;;;;;;;5.55;3.37;;;;;;;32.77;27.91;100035.30;1733166;80;20981;-73
2021/09/13 09:50:37;;;;;;;6.60;2.90;;;;;;;32.33;28.66;100030.16;1737888;80;20900;-66
2021/09/13 09:53:19;;;;;;;7.50;3.05;;;;;;;32.32;28.16;100037.47;1732451;80;21011;-65
2021/09/13 09:55:52;;;;;;;4.58;2.70;;;;;;;32.05;27.94;100042.91;1732473;80;20988;-65
2021/09/13 09:58:15;;;;;;;3.20;2.45;;;;;;;31.20;28.95;100044.55;1738119;80;21155;-66
2021/09/13 10:00:45;;;;;;;3.95;2.37;;;;;;;30.30;29.76;100040.93;1733305;80;20975;-66
2021/09/13 10:03:14;;;;;;;4.90;2.65;;;;;;;30.30;29.76;100040.93;1733446;80;22005;-73
2021/09/13 10:05:41;;;;;;;3.87;2.62;;;;;;;29.84;30.45;100044.30;1631792;84;21145;-65
2021/09/13 10:08:09;;;;;;;4.85;3.27;;;;;;;29.24;31.24;100041.77;1730019;80;21060;-66
2021/09/13 10:10:35;;;;;;;9.25;3.20;;;;;;;28.99;32.03;100042.52;1733684;80;21163;-63
2021/09/13 10:13:03;;;;;;;6.12;2.92;;;;;;;28.88;32.56;100045.21;1694005;81;20955;-71
2021/09/13 10:15:30;;;;;;;6.20;3.02;;;;;;;28.84;32.41;100035.65;1698740;82;20966;-67
2021/09/13 10:17:57;;;;;;;6.08;2.80;;;;;;;29.03;32.79;100026.03;1731363;80;21237;-68
2021/09/13 10:20:24;;;;;;;4.97;2.90;;;;;;;29.32;32.91;100026.25;1730328;80;21013;-66
2021/09/13 10:22:54;;;;;;;4.78;2.45;;;;;;;29.80;31.49;100023.99;1736603;81;21144;-67
2021/09/13 10:25:21;;;;;;;3.77;2.67;;;;;;;30.04;30.75;100022.16;1732199;80;21000;-70
2021/09/13 10:27:47;;;;;;;4.72;2.67;;;;;;;30.17;31.20;100015.04;1657893;85;21177;-66
2021/09/13 10:30:22;;;;;;;6.50;2.95;;;;;;;30.44;30.72;100009.03;1731127;81;21044;-67
2021/09/13 10:33:00;;;;;;;4.65;2.62;;;;;;;30.78;30.20;100009.47;1729636;80;21078;-75
2021/09/13 10:35:53;;;;;;;6.30;2.90;;;;;;;30.98;29.40;99998.51;1732243;80;21139;-67
2021/09/13 10:38:46;;;;;;;5.47;3.05;;;;;;;30.93;29.96;100002.75;1720483;80;20942;-69
2021/09/13 10:41:38;;;;;;;5.05;2.72;;;;;;;30.74;30.11;100011.23;1723172;80;21019;-67
2021/09/13 10:44:07;;;;;;;8.60;3.87;;;;;;;30.54;30.36;100016.20;1714583;80;21546;-70
2021/09/13 10:47:03;;;;;;;5.53;2.63;;;;;;;30.68;30.24;100011.92;1741143;81;21281;-66
2021/09/13 10:49:31;;;;;;;5.08;2.37;;;;;;;30.89;30.27;100003.95;1668350;83;21161;-76
2021/09/13 10:52:31;;;;;;;6.20;3.17;;;;;;;31.29;29.18;100001.39;1737568;80;21338;-65
2021/09/13 10:55:13;;;;;;;5.90;2.83;;;;;;;31.31;28.93;100000.55;1717126;81;21506;-68
2021/09/13 10:58:01;;;;;;;4.25;3.05;;;;;;;31.54;27.85;99998.31;1730017;80;22409;-68
2021/09/13 11:00:46;;;;;;;6.05;3.02;;;;;;;31.54;27.85;99998.31;1732567;80;21045;-67
2021/09/13 11:03:28;;;;;;;4.78;2.80;;;;;;;31.63;27.99;99990.39;1736175;80;21619;-68
2021/09/13 11:06:13;;;;;;;4.20;2.90;;;;;;;32.05;27.47;99985.47;1726201;81;21061;-67
2021/09/13 11:08:46;;;;;;;4.17;2.80;;;;;;;32.33;26.98;99986.44;1722634;81;21389;-70
2021/09/13 11:11:17;;;;;;;6.42;2.72;;;;;;;32.38;27.25;99984.08;1722184;81;21059;-66
2021/09/13 11:13:47;;;;;;;5.90;3.42;;;;;;;32.60;26.92;99972.09;1730900;81;21000;-69
2021/09/13 11:16:17;;;;;;;7.45;3.22;;;;;;;33.23;26.58;99977.10;1724945;81;22207;-69
2021/09/13 11:18:46;;;;;;;5.45;2.85;;;;;;;33.57;26.01;99974.42;1726798;82;21118;-65
2021/09/13 11:21:33;;;;;;;4.78;2.92;;;;;;;33.48;26.33;99971.84;1726202;81;21477;-68
2021/09/13 11:24:08;;;;;;;6.08;3.37;;;;;;;33.56;26.59;99974.17;1728939;81;20936;-68
2021/09/13 11:26:43;;;;;;;7.12;3.77;;;;;;;33.41;26.49;99974.31;1728246;81;20907;-67
2021/09/13 11:29:17;;;;;;;5.75;3.20;;;;;;;33.13;27.15;99966.98;1725869;81;21124;-67
2021/09/13 11:31:53;;;;;;;5.83;3.50;;;;;;;33.18;26.63;99973.48;1724837;81;21031;-67
2021/09/13 11:34:25;;;;;;;4.17;2.62;;;;;;;33.05;26.00;99967.12;1724512;82;20975;-66